createdAt,value
2019-02-14T00:00:48.999Z,14.33
2019-02-14T00:03:20.292Z,12.05
2019-02-14T00:05:50.102Z,13.93
2019-02-14T00:08:20.364Z,12.53
2019-02-14T00:10:50.230Z,13.27
2019-02-14T00:13:19.965Z,15.10
2019-02-14T00:15:50.150Z,12.90
2019-02-14T00:18:19.924Z,11.73
2019-02-14T00:23:02.551Z,11.60
2019-02-14T00:25:32.876Z,12.63
2019-02-14T00:28:03.105Z,12.57
2019-02-14T00:30:32.798Z,16.40
2019-02-14T00:33:03.104Z,14.00
2019-02-14T00:35:33.350Z,13.40
2019-02-14T00:38:03.197Z,16.83
2019-02-14T00:40:33.082Z,15.57
2019-02-14T00:43:03.239Z,15.93
2019-02-14T00:45:34.694Z,14.93
2019-02-14T00:48:04.661Z,11.87
2019-02-14T00:50:35.346Z,15.10
2019-02-14T00:53:05.164Z,13.33
2019-02-14T00:55:35.255Z,14.77
2019-02-14T00:58:05.360Z,21.17
2019-02-14T01:00:35.156Z,13.37
2019-02-14T01:03:04.971Z,14.60
2019-02-14T01:05:34.681Z,15.67
2019-02-14T01:08:04.667Z,14.60
2019-02-14T01:10:34.512Z,17.73
2019-02-14T01:13:04.250Z,13.87
2019-02-14T01:15:35.863Z,20.63
2019-02-14T01:18:05.718Z,18.70
2019-02-14T01:20:35.606Z,20.33
2019-02-14T01:23:06.058Z,15.23
2019-02-14T01:25:35.842Z,17.13
2019-02-14T01:28:05.653Z,15.77
2019-02-14T01:30:36.020Z,13.33
2019-02-14T01:33:07.211Z,16.07
2019-02-14T01:35:42.042Z,16.53
2019-02-14T01:38:08.723Z,16.77
2019-02-14T01:40:39.492Z,13.40
2019-02-14T01:43:09.352Z,15.37
2019-02-14T01:45:39.070Z,18.87
2019-02-14T01:48:08.792Z,15.83
2019-02-14T01:50:39.014Z,15.40
2019-02-14T01:53:08.646Z,15.80
2019-02-14T01:55:38.628Z,19.27
2019-02-14T01:58:09.769Z,18.73
2019-02-14T02:00:39.730Z,15.07
2019-02-14T02:03:09.838Z,17.40
2019-02-14T02:05:39.692Z,16.70
2019-02-14T02:08:09.369Z,13.47
2019-02-14T02:10:39.204Z,15.27
2019-02-14T02:13:09.360Z,16.20
2019-02-14T02:15:42.941Z,12.57
2019-02-14T02:18:13.963Z,13.30
2019-02-14T02:20:43.962Z,12.60
2019-02-14T02:23:13.785Z,13.67
2019-02-14T02:25:43.569Z,15.37
2019-02-14T02:28:13.417Z,14.37
2019-02-14T02:30:43.114Z,14.13
2019-02-14T02:33:12.999Z,13.97
2019-02-14T02:35:42.720Z,15.37
2019-02-14T02:38:12.520Z,15.20
2019-02-14T02:40:42.335Z,19.00
2019-02-14T02:43:12.274Z,14.90
2019-02-14T02:45:42.008Z,15.07
2019-02-14T02:48:11.767Z,14.77
2019-02-14T02:50:41.672Z,15.73
2019-02-14T02:53:11.522Z,16.80
2019-02-14T02:55:41.277Z,14.30
2019-02-14T02:58:11.354Z,17.20
2019-02-14T03:00:41.084Z,16.70
2019-02-14T03:03:10.934Z,16.23
2019-02-14T03:05:40.692Z,17.27
2019-02-14T03:08:10.435Z,15.37
2019-02-14T03:10:40.228Z,18.20
2019-02-14T03:13:10.242Z,16.50
2019-02-14T03:15:40.057Z,14.70
2019-02-14T03:18:10.297Z,17.90
2019-02-14T03:20:40.106Z,16.80
2019-02-14T03:23:09.918Z,15.17
2019-02-14T03:25:39.741Z,12.93
2019-02-14T03:28:10.433Z,15.70
2019-02-14T03:30:40.197Z,15.80
2019-02-14T03:33:10.048Z,17.17
2019-02-14T03:35:40.021Z,18.20
2019-02-14T03:38:09.791Z,17.77
2019-02-14T03:40:39.628Z,17.97
2019-02-14T03:43:09.676Z,16.67
2019-02-14T03:45:40.159Z,16.17
2019-02-14T03:48:10.020Z,16.23
2019-02-14T03:50:39.717Z,20.40
2019-02-14T03:53:09.510Z,20.30
2019-02-14T03:55:39.232Z,24.07
2019-02-14T03:58:09.342Z,19.40
2019-02-14T04:00:40.406Z,16.77
2019-02-14T04:03:10.741Z,15.33
2019-02-14T04:05:40.492Z,23.50
2019-02-14T04:08:10.245Z,18.50
2019-02-14T04:10:40.080Z,19.53
2019-02-14T04:13:09.827Z,18.67
2019-02-14T04:15:40.171Z,18.23
2019-02-14T04:18:10.240Z,22.63
2019-02-14T04:20:40.103Z,20.67
2019-02-14T04:23:09.982Z,26.30
2019-02-14T04:25:39.763Z,22.20
2019-02-14T04:28:09.514Z,22.10
2019-02-14T04:30:39.502Z,20.97
2019-02-14T04:33:09.214Z,25.67
2019-02-14T04:35:38.954Z,25.70
2019-02-14T04:38:08.764Z,23.40
2019-02-14T04:40:39.285Z,23.17
2019-02-14T04:43:09.068Z,17.47
2019-02-14T04:45:41.059Z,25.17
2019-02-14T04:48:11.185Z,17.53
2019-02-14T04:50:41.048Z,17.20
2019-02-14T04:53:12.763Z,16.70
2019-02-14T04:55:42.473Z,20.67
2019-02-14T04:58:12.258Z,18.13
2019-02-14T05:00:42.913Z,16.13
2019-02-14T05:03:13.550Z,17.37
2019-02-14T05:05:43.617Z,16.23
2019-02-14T05:08:13.403Z,17.37
2019-02-14T05:10:43.145Z,19.50
2019-02-14T05:13:12.854Z,19.73
2019-02-14T05:15:42.592Z,18.43
2019-02-14T05:18:13.339Z,16.93
2019-02-14T05:20:43.077Z,18.90
2019-02-14T05:23:12.849Z,20.80
2019-02-14T05:25:43.065Z,17.43
2019-02-14T05:28:12.703Z,17.30
2019-02-14T05:30:42.685Z,20.03
2019-02-14T05:33:12.444Z,18.00
2019-02-14T05:35:42.293Z,20.50
2019-02-14T05:38:12.871Z,17.50
2019-02-14T05:40:42.692Z,22.43
2019-02-14T05:43:12.468Z,25.20
2019-02-14T05:45:43.926Z,18.30
2019-02-14T05:48:13.715Z,23.10
2019-02-14T05:50:43.400Z,18.47
2019-02-14T05:53:13.819Z,22.70
2019-02-14T05:55:44.529Z,17.70
2019-02-14T05:58:15.874Z,17.40
2019-02-14T06:00:45.720Z,19.77
2019-02-14T06:03:16.417Z,20.67
2019-02-14T06:05:46.352Z,22.17
2019-02-14T06:08:16.210Z,20.17
2019-02-14T06:10:45.930Z,20.63
2019-02-14T06:13:16.987Z,18.43
2019-02-14T06:15:46.872Z,24.97
2019-02-14T06:18:16.638Z,19.80
2019-02-14T06:20:46.509Z,24.77
2019-02-14T06:23:16.356Z,24.67
2019-02-14T06:26:08.691Z,21.00
2019-02-14T06:28:43.743Z,19.90
2019-02-14T06:31:13.456Z,21.23
2019-02-14T06:33:44.406Z,19.20
2019-02-14T06:36:14.760Z,20.23
2019-02-14T06:38:44.541Z,21.10
2019-02-14T06:41:14.332Z,23.17
2019-02-14T06:43:44.581Z,19.63
2019-02-14T06:46:14.292Z,22.63
2019-02-14T06:48:44.121Z,18.77
2019-02-14T06:51:13.921Z,18.77
2019-02-14T06:53:45.103Z,23.50
2019-02-14T06:56:14.881Z,18.50
2019-02-14T06:58:45.647Z,22.30
2019-02-14T07:01:15.418Z,19.83
2019-02-14T07:03:45.487Z,19.03
2019-02-14T07:06:15.423Z,20.87
2019-02-14T07:08:45.401Z,21.43
2019-02-14T07:11:15.525Z,23.13
2019-02-14T07:13:45.307Z,22.80
2019-02-14T07:16:16.347Z,21.93
2019-02-14T07:18:46.106Z,24.37
2019-02-14T07:21:16.223Z,20.90
2019-02-14T07:23:46.538Z,22.07
2019-02-14T07:26:16.338Z,22.57
2019-02-14T07:28:46.256Z,22.07
2019-02-14T07:31:16.060Z,24.97
2019-02-14T07:33:45.916Z,24.63
2019-02-14T07:36:16.691Z,27.33
2019-02-14T07:38:46.530Z,23.47
2019-02-14T07:41:16.250Z,20.33
2019-02-14T07:43:46.061Z,24.77
2019-02-14T07:46:22.555Z,25.33
2019-02-14T07:48:47.730Z,23.07
2019-02-14T07:51:18.225Z,22.93
2019-02-14T07:53:47.973Z,28.03
2019-02-14T07:56:18.637Z,25.00
2019-02-14T07:58:48.672Z,26.73
2019-02-14T08:01:18.454Z,32.10
2019-02-14T08:03:48.235Z,20.33
2019-02-14T08:06:19.137Z,28.27
2019-02-14T08:08:49.481Z,25.20
2019-02-14T08:11:19.307Z,27.07
2019-02-14T08:13:49.051Z,26.57
2019-02-14T08:16:18.841Z,28.57
2019-02-14T08:18:48.600Z,28.97
2019-02-14T08:21:18.449Z,30.03
2019-02-14T08:23:48.538Z,25.23
2019-02-14T08:26:18.460Z,31.67
2019-02-14T08:28:49.090Z,31.20
2019-02-14T08:31:18.953Z,31.03
2019-02-14T08:33:48.859Z,34.13
2019-02-14T08:36:18.664Z,28.73
2019-02-14T08:38:48.477Z,29.87
2019-02-14T08:41:18.313Z,27.00
2019-02-14T08:43:48.237Z,29.53
2019-02-14T08:46:18.750Z,26.43
2019-02-14T08:48:50.121Z,32.13
2019-02-14T08:51:19.883Z,28.27
2019-02-14T08:53:49.800Z,28.53
2019-02-14T08:56:19.548Z,29.53
2019-02-14T08:58:49.381Z,29.80
2019-02-14T09:01:19.333Z,35.93
2019-02-14T09:03:49.085Z,34.07
2019-02-14T09:06:19.810Z,30.00
2019-02-14T09:08:50.751Z,28.33
2019-02-14T09:11:20.603Z,30.53
2019-02-14T09:13:50.632Z,29.37
2019-02-14T09:16:20.330Z,31.37
2019-02-14T09:18:50.188Z,32.40
2019-02-14T09:21:20.870Z,33.60
2019-02-14T09:23:50.653Z,28.60
2019-02-14T09:26:20.425Z,33.50
2019-02-14T09:28:50.222Z,31.60
2019-02-14T09:31:20.688Z,34.50
2019-02-14T09:33:50.403Z,37.33
2019-02-14T09:36:20.214Z,29.40
2019-02-14T09:38:49.927Z,28.90
2019-02-14T09:41:19.737Z,31.17
2019-02-14T09:43:49.569Z,32.00
2019-02-14T09:46:19.686Z,31.70
2019-02-14T09:48:49.628Z,32.37
2019-02-14T09:51:19.567Z,27.37
2019-02-14T09:53:49.287Z,33.00
2019-02-14T09:56:19.047Z,33.13
2019-02-14T09:58:48.919Z,29.85
2019-02-14T10:01:18.846Z,35.40
2019-02-14T10:03:48.698Z,29.33
2019-02-14T10:06:18.652Z,32.17
2019-02-14T10:08:49.280Z,32.48
2019-02-14T10:11:19.052Z,33.70
2019-02-14T10:13:48.818Z,30.88
2019-02-14T10:16:18.612Z,31.37
2019-02-14T10:18:48.252Z,28.32
2019-02-14T10:21:18.080Z,29.98
2019-02-14T10:23:47.844Z,28.27
2019-02-14T10:26:17.684Z,33.10
2019-02-14T10:28:48.029Z,28.57
2019-02-14T10:31:18.116Z,33.23
2019-02-14T10:33:48.976Z,31.10
2019-02-14T10:36:18.750Z,28.12
2019-02-14T10:38:49.526Z,35.60
2019-02-14T10:41:19.242Z,29.87
2019-02-14T10:43:49.234Z,31.25
2019-02-14T10:46:19.801Z,35.95
2019-02-14T10:48:49.557Z,30.15
2019-02-14T10:51:19.600Z,28.00
2019-02-14T10:53:49.374Z,33.23
2019-02-14T10:56:19.017Z,35.03
2019-02-14T10:58:48.816Z,33.80
2019-02-14T11:01:18.699Z,32.13
2019-02-14T11:03:48.487Z,34.08
2019-02-14T11:06:18.305Z,31.95
2019-02-14T11:08:48.016Z,30.72
2019-02-14T11:11:17.788Z,35.20
2019-02-14T11:13:47.590Z,37.25
2019-02-14T11:16:17.592Z,40.55
2019-02-14T11:18:47.540Z,34.70
2019-02-14T11:21:17.386Z,38.48
2019-02-14T11:23:47.039Z,38.28
2019-02-14T11:26:17.087Z,42.95
2019-02-14T11:28:46.800Z,36.40
2019-02-14T11:31:17.027Z,37.20
2019-02-14T11:33:47.208Z,36.42
2019-02-14T11:36:17.749Z,33.55
2019-02-14T11:38:47.466Z,39.78
2019-02-14T11:41:17.215Z,41.53
2019-02-14T11:43:46.960Z,41.83
2019-02-14T11:46:17.019Z,42.43
2019-02-14T11:48:48.673Z,37.80
2019-02-14T11:51:18.601Z,36.58
2019-02-14T11:53:48.445Z,39.13
2019-02-14T11:56:18.118Z,34.43
2019-02-14T11:58:47.872Z,34.90
2019-02-14T12:01:18.737Z,36.08
2019-02-14T12:03:48.496Z,37.05
2019-02-14T12:06:18.391Z,35.92
2019-02-14T12:08:57.990Z,41.58
2019-02-14T12:11:19.914Z,42.75
2019-02-14T12:13:49.662Z,41.98
2019-02-14T12:16:19.374Z,42.67
2019-02-14T12:18:49.231Z,39.50
2019-02-14T12:21:18.892Z,41.33
2019-02-14T12:23:48.637Z,40.83
2019-02-14T12:26:18.641Z,40.17
2019-02-14T12:28:49.397Z,42.55
2019-02-14T12:31:19.106Z,42.50
2019-02-14T12:33:48.959Z,43.20
2019-02-14T12:36:18.745Z,46.73
2019-02-14T12:38:48.476Z,51.70
2019-02-14T12:41:18.257Z,54.63
2019-02-14T12:43:48.009Z,48.87
2019-02-14T12:46:17.825Z,41.25
2019-02-14T12:48:48.387Z,42.90
2019-02-14T12:51:18.298Z,45.38
2019-02-14T12:53:48.028Z,43.25
2019-02-14T12:56:18.117Z,50.08
2019-02-14T12:58:47.853Z,46.90
2019-02-14T13:01:17.729Z,47.90
2019-02-14T13:03:47.544Z,38.13
2019-02-14T13:06:17.368Z,44.90
2019-02-14T13:08:47.169Z,44.03
2019-02-14T13:11:17.040Z,48.10
2019-02-14T13:13:49.945Z,41.50
2019-02-14T13:16:18.298Z,36.98
2019-02-14T13:18:48.000Z,40.25
2019-02-14T13:21:18.080Z,43.52
2019-02-14T13:23:47.796Z,39.95
2019-02-14T13:26:17.475Z,40.10
2019-02-14T13:28:47.194Z,37.20
2019-02-14T13:31:17.198Z,42.78
2019-02-14T13:33:47.030Z,43.08
2019-02-14T13:36:16.751Z,38.73
2019-02-14T13:38:47.247Z,39.27
2019-02-14T13:41:17.064Z,41.05
2019-02-14T13:43:46.782Z,37.08
2019-02-14T13:46:16.606Z,40.55
2019-02-14T13:48:46.318Z,41.70
2019-02-14T13:51:16.359Z,37.35
2019-02-14T13:53:46.073Z,43.20
2019-02-14T13:56:15.837Z,37.85
2019-02-14T13:58:45.701Z,40.52
2019-02-14T14:01:15.445Z,37.75
2019-02-14T14:03:46.006Z,43.73
2019-02-14T14:06:15.733Z,40.17
2019-02-14T14:08:45.439Z,45.15
2019-02-14T14:11:15.255Z,39.58
2019-02-14T14:13:45.307Z,39.23
2019-02-14T14:16:15.097Z,43.90
2019-02-14T14:18:45.711Z,39.83
2019-02-14T14:21:15.848Z,40.75
2019-02-14T14:23:45.552Z,38.55
2019-02-14T14:26:15.300Z,40.95
2019-02-14T14:28:45.089Z,44.65
2019-02-14T14:31:14.872Z,40.58
2019-02-14T14:33:45.495Z,40.33
2019-02-14T14:36:15.272Z,42.00
2019-02-14T14:38:46.297Z,39.33
2019-02-14T14:41:17.075Z,42.25
2019-02-14T14:43:56.665Z,40.38
2019-02-14T14:46:28.035Z,41.88
2019-02-14T14:48:58.069Z,38.48
2019-02-14T14:51:28.631Z,39.23
2019-02-14T14:53:58.472Z,39.33
2019-02-14T14:56:28.672Z,39.50
2019-02-14T14:58:58.622Z,43.40
2019-02-14T15:01:28.483Z,42.67
2019-02-14T15:03:58.312Z,36.53
2019-02-14T15:06:28.098Z,41.33
2019-02-14T15:08:58.179Z,39.00
2019-02-14T15:11:28.494Z,37.83
2019-02-14T15:13:58.556Z,36.77
2019-02-14T15:16:28.729Z,36.48
2019-02-14T15:18:58.757Z,35.78
2019-02-14T15:21:28.587Z,38.33
2019-02-14T15:23:58.660Z,42.48
2019-02-14T15:26:28.769Z,39.42
2019-02-14T15:28:58.515Z,37.20
2019-02-14T15:31:28.500Z,40.92
2019-02-14T15:33:58.284Z,40.63
2019-02-14T15:36:29.997Z,40.65
2019-02-14T15:39:01.089Z,39.15
2019-02-14T15:41:32.444Z,36.30
2019-02-14T15:44:02.596Z,29.85
2019-02-14T15:46:33.186Z,31.50
2019-02-14T15:49:03.251Z,24.25
2019-02-14T15:51:33.276Z,19.90
2019-02-14T15:54:03.285Z,21.80
2019-02-14T15:56:33.201Z,28.35
2019-02-14T15:59:04.787Z,19.48
2019-02-14T16:01:34.683Z,24.47
2019-02-14T16:04:04.925Z,23.77
2019-02-14T16:06:35.381Z,19.48
2019-02-14T16:09:05.986Z,21.80
2019-02-14T16:11:36.461Z,22.55
2019-02-14T16:14:07.229Z,19.15
2019-02-14T16:16:37.063Z,15.65
2019-02-14T16:19:08.707Z,17.10
2019-02-14T16:21:38.349Z,14.53
2019-02-14T16:24:08.243Z,10.70
2019-02-14T16:26:38.919Z,13.95
2019-02-14T16:29:09.391Z,12.45
2019-02-14T16:31:39.319Z,12.70
2019-02-14T16:34:09.096Z,13.22
2019-02-14T16:36:39.107Z,12.33
2019-02-14T16:39:08.925Z,12.82
2019-02-14T16:41:40.092Z,10.93
2019-02-14T16:44:09.967Z,11.57
2019-02-14T16:46:39.866Z,12.58
2019-02-14T16:49:09.717Z,15.88
2019-02-14T16:51:40.029Z,12.40
2019-02-14T16:54:10.133Z,18.40
2019-02-14T16:56:40.112Z,16.00
2019-02-14T16:59:11.350Z,23.70
2019-02-14T17:01:41.394Z,18.55
2019-02-14T17:04:11.294Z,21.10
2019-02-14T17:06:41.261Z,18.48
2019-02-14T17:09:13.253Z,17.23
2019-02-14T17:11:43.092Z,30.37
2019-02-14T17:14:12.896Z,29.98
2019-02-14T17:16:42.754Z,28.07
2019-02-14T17:19:12.489Z,29.60
2019-02-14T17:21:42.794Z,26.60
2019-02-14T17:24:13.261Z,28.87
2019-02-14T17:26:43.175Z,32.45
2019-02-14T17:29:13.133Z,36.17
2019-02-14T17:31:45.714Z,30.45
2019-02-14T17:34:16.468Z,29.25
2019-02-14T17:36:46.218Z,30.32
2019-02-14T17:39:16.007Z,30.52
2019-02-14T17:41:46.009Z,30.97
2019-02-14T17:44:15.728Z,27.90
2019-02-14T17:46:45.563Z,32.28
2019-02-14T17:49:15.928Z,31.00
2019-02-14T17:54:29.868Z,31.12
2019-02-14T17:56:59.677Z,36.23
2019-02-14T17:59:30.974Z,32.85
2019-02-14T18:02:01.797Z,33.08
2019-02-14T18:04:31.626Z,33.88
2019-02-14T18:07:01.407Z,32.15
2019-02-14T18:09:31.115Z,28.92
2019-02-14T18:12:00.882Z,27.90
2019-02-14T18:17:49.469Z,26.10
2019-02-14T18:20:20.336Z,22.93
2019-02-14T18:22:50.085Z,27.40
2019-02-14T18:25:19.806Z,23.05
2019-02-14T18:27:49.563Z,26.75
2019-02-14T18:30:19.455Z,28.40
2019-02-14T18:32:49.168Z,30.48
2019-02-14T18:35:18.906Z,24.72
2019-02-14T18:37:48.624Z,25.55
2019-02-14T18:40:18.436Z,27.37
2019-02-14T18:42:48.919Z,28.80
2019-02-14T18:45:18.693Z,26.77
2019-02-14T18:47:48.496Z,30.20
2019-02-14T18:50:18.619Z,24.35
2019-02-14T18:52:48.731Z,23.98
2019-02-14T18:55:18.564Z,31.42
2019-02-14T18:57:48.412Z,26.68
2019-02-14T19:00:19.247Z,27.22
2019-02-14T19:02:49.455Z,25.45
2019-02-14T19:05:19.379Z,25.70
2019-02-14T19:07:49.094Z,22.37
2019-02-14T19:10:18.841Z,23.15
2019-02-14T19:12:49.494Z,24.02
2019-02-14T19:15:19.332Z,22.85
2019-02-14T19:17:49.052Z,23.87
2019-02-14T19:20:18.784Z,20.45
2019-02-14T19:22:48.567Z,17.60
2019-02-14T19:25:19.915Z,21.77
2019-02-14T19:27:49.668Z,19.70
2019-02-14T19:30:20.131Z,19.57
2019-02-14T19:32:50.017Z,25.07
2019-02-14T19:35:23.116Z,23.15
2019-02-14T19:37:51.743Z,25.25
2019-02-14T19:40:21.512Z,23.18
2019-02-14T19:42:51.340Z,23.30
2019-02-14T19:45:21.455Z,24.95
2019-02-14T19:47:51.350Z,23.42
2019-02-14T19:50:21.088Z,23.20
2019-02-14T19:52:50.836Z,24.90
2019-02-14T19:55:21.389Z,28.52
2019-02-14T19:57:51.199Z,27.30
2019-02-14T20:00:20.944Z,27.67
2019-02-14T20:02:50.958Z,31.42
2019-02-14T20:05:20.686Z,30.55
2019-02-14T20:07:51.288Z,31.37
2019-02-14T20:10:21.135Z,27.27
2019-02-14T20:12:50.851Z,33.33
2019-02-14T20:15:21.937Z,30.55
2019-02-14T20:17:51.688Z,30.75
2019-02-14T20:20:21.440Z,28.30
2019-02-14T20:22:52.310Z,29.67
2019-02-14T20:25:26.760Z,32.58
2019-02-14T20:27:56.569Z,33.50
2019-02-14T20:30:27.378Z,34.18
2019-02-14T20:33:04.360Z,34.45
2019-02-14T20:35:28.608Z,35.23
2019-02-14T20:37:58.363Z,32.63
2019-02-14T20:40:28.188Z,37.25
2019-02-14T20:42:58.180Z,33.53
2019-02-14T20:45:28.033Z,35.38
2019-02-14T20:47:58.224Z,38.08
2019-02-14T20:50:27.978Z,39.38
2019-02-14T20:52:59.133Z,36.38
2019-02-14T20:55:29.135Z,36.42
2019-02-14T20:57:59.008Z,30.77
2019-02-14T21:00:36.524Z,36.50
2019-02-14T21:03:06.526Z,32.78
2019-02-14T21:05:36.228Z,36.75
2019-02-14T21:08:06.747Z,31.40
2019-02-14T21:10:37.548Z,28.50
2019-02-14T21:13:07.386Z,38.28
2019-02-14T21:15:37.227Z,31.68
2019-02-14T21:18:06.973Z,30.68
2019-02-14T21:20:37.173Z,33.83
2019-02-14T21:23:06.938Z,31.50
2019-02-14T21:25:38.247Z,30.30
2019-02-14T21:28:08.155Z,26.00
2019-02-14T21:30:39.099Z,29.02
2019-02-14T21:33:09.152Z,48.33
2019-02-14T21:35:39.240Z,64.87
2019-02-14T21:38:09.100Z,63.85
2019-02-14T21:40:39.006Z,47.95
2019-02-14T21:43:08.907Z,38.92
2019-02-14T21:45:38.920Z,32.20
2019-02-14T21:48:09.320Z,33.02
2019-02-14T21:50:39.368Z,33.80
2019-02-14T21:53:10.962Z,32.75
2019-02-14T21:55:40.931Z,37.03
2019-02-14T21:58:10.737Z,37.58
2019-02-14T22:00:41.677Z,46.00
2019-02-14T22:03:11.782Z,36.10
2019-02-14T22:05:42.359Z,36.48
2019-02-14T22:08:13.802Z,30.37
2019-02-14T22:10:43.691Z,30.60
2019-02-14T22:13:13.613Z,32.65
2019-02-14T22:15:43.675Z,36.83
2019-02-14T22:18:13.510Z,35.15
2019-02-14T22:20:43.280Z,32.33
2019-02-14T22:23:13.019Z,31.50
2019-02-14T22:25:42.756Z,33.73
2019-02-14T22:28:12.584Z,33.40
2019-02-14T22:30:42.387Z,37.78
2019-02-14T22:33:12.058Z,39.90
2019-02-14T22:35:41.999Z,43.55
2019-02-14T22:38:11.773Z,43.65
2019-02-14T22:40:42.323Z,37.58
2019-02-14T22:43:12.015Z,37.20
2019-02-14T22:45:42.616Z,43.90
2019-02-14T22:48:12.330Z,38.58
2019-02-14T22:50:42.151Z,41.77
2019-02-14T22:53:11.871Z,38.17
2019-02-14T22:55:42.866Z,40.85
2019-02-14T22:58:13.991Z,40.15
2019-02-14T23:00:45.455Z,34.65
2019-02-14T23:03:16.750Z,31.25
2019-02-14T23:05:46.766Z,35.85
2019-02-14T23:08:16.460Z,38.53
2019-02-14T23:10:46.474Z,39.27
2019-02-14T23:13:16.512Z,39.00
2019-02-14T23:15:47.036Z,39.08
2019-02-14T23:18:16.887Z,39.07
2019-02-14T23:20:46.690Z,39.67
2019-02-14T23:23:16.463Z,40.30
2019-02-14T23:25:46.221Z,42.50
2019-02-14T23:28:16.844Z,41.50
2019-02-14T23:30:46.584Z,40.12
2019-02-14T23:33:16.284Z,39.87
2019-02-14T23:35:46.117Z,37.50
2019-02-14T23:38:15.895Z,40.75
2019-02-14T23:40:45.659Z,37.88
2019-02-14T23:43:15.372Z,41.37
2019-02-14T23:45:45.161Z,35.43
2019-02-14T23:48:14.929Z,36.88
2019-02-14T23:50:44.675Z,37.23
2019-02-14T23:53:14.558Z,36.95
2019-02-14T23:55:44.305Z,38.35
2019-02-14T23:58:15.873Z,35.33
